Time;durP1;ratioP1;P1;durP2;ratioP2;P2;SDS_P1;SDS_P2;PMS_P1;PMS_P2;Temp;Humidity;BMP_temperature;BMP_pressure;BME280_temperature;BME280_humidity;BME280_pressure;Samples;Min_cycle;Max_cycle;Signal;HPM_P1;HPM_P2
2023/02/24 00:01:23;;;;;;;39.85;21.17;;;10.00;99.90;;;;;;5056965;28;20219;-79
2023/02/24 00:03:51;;;;;;;36.95;20.25;;;9.90;99.90;;;;;;5059336;28;20224;-76
2023/02/24 00:06:19;;;;;;;39.70;22.40;;;9.90;99.90;;;;;;5023738;28;20288;-79
2023/02/24 00:08:47;;;;;;;34.22;17.67;;;9.90;99.90;;;;;;5065409;28;20281;-76
2023/02/24 00:11:18;;;;;;;46.58;27.20;;;9.90;99.90;;;;;;5051125;28;20554;-79
2023/02/24 00:13:47;;;;;;;39.17;20.77;;;9.90;99.90;;;;;;5060411;28;20587;-81
2023/02/24 00:16:16;;;;;;;36.00;19.33;;;9.90;99.90;;;;;;5051360;28;20654;-79
2023/02/24 00:18:46;;;;;;;31.13;18.73;;;9.90;99.90;;;;;;5065980;28;20232;-80
2023/02/24 00:21:17;;;;;;;35.85;20.75;;;9.90;99.90;;;;;;5052763;28;20587;-79
2023/02/24 00:23:46;;;;;;;30.90;18.23;;;9.90;99.90;;;;;;5055415;28;20657;-75
2023/02/24 00:26:15;;;;;;;39.92;18.83;;;9.90;99.90;;;;;;5064278;28;20655;-77
2023/02/24 00:28:43;;;;;;;36.47;19.38;;;9.90;99.90;;;;;;5054874;28;20243;-76
2023/02/24 00:31:12;;;;;;;37.33;17.98;;;9.90;99.90;;;;;;5063687;28;20262;-80
2023/02/24 00:33:40;;;;;;;32.05;16.23;;;9.90;99.90;;;;;;5063145;28;20228;-76
2023/02/24 00:36:11;;;;;;;33.25;18.33;;;9.90;99.90;;;;;;5067349;28;20225;-77
2023/02/24 00:38:39;;;;;;;31.23;17.90;;;9.90;99.90;;;;;;5079125;28;20239;-77
2023/02/24 00:41:13;;;;;;;28.00;16.20;;;9.80;99.90;;;;;;5077989;28;20235;-78
2023/02/24 00:43:40;;;;;;;37.45;16.92;;;9.90;99.90;;;;;;5052921;28;20282;-80
2023/02/24 00:46:10;;;;;;;32.05;15.10;;;9.80;99.90;;;;;;5052021;28;20224;-80
2023/02/24 00:48:40;;;;;;;30.23;15.60;;;9.80;99.90;;;;;;5063998;28;20229;-81
2023/02/24 00:51:10;;;;;;;28.17;15.65;;;9.80;99.90;;;;;;5052031;28;20743;-77
2023/02/24 00:53:44;;;;;;;25.35;13.63;;;9.80;99.90;;;;;;5051291;28;20290;-80
2023/02/24 00:56:15;;;;;;;24.52;14.07;;;9.70;99.90;;;;;;5052509;28;20241;-80
2023/02/24 00:58:43;;;;;;;30.55;15.82;;;9.70;99.90;;;;;;5051500;28;20221;-78
2023/02/24 01:01:16;;;;;;;15.77;9.57;;;9.70;99.90;;;;;;5052077;28;20574;-80
2023/02/24 01:03:43;;;;;;;17.63;13.63;;;9.60;99.90;;;;;;5051727;28;20217;-77
2023/02/24 01:06:13;;;;;;;18.05;10.55;;;9.50;99.90;;;;;;5052216;28;20346;-80
2023/02/24 01:08:46;;;;;;;18.48;11.60;;;9.50;99.90;;;;;;5051532;28;20237;-77
2023/02/24 01:14:02;;;;;;;14.60;7.40;;;9.30;99.90;;;;;;5052489;28;20319;-77
2023/02/24 01:16:29;;;;;;;17.73;8.57;;;9.30;99.90;;;;;;5051325;28;20220;-77
2023/02/24 01:18:56;;;;;;;21.40;12.55;;;9.30;99.90;;;;;;5054209;28;20278;-80
2023/02/24 01:21:25;;;;;;;15.57;7.22;;;9.20;99.90;;;;;;5055058;28;20598;-80
2023/02/24 01:23:53;;;;;;;13.13;6.60;;;9.20;99.90;;;;;;5061669;28;20310;-80
2023/02/24 01:26:21;;;;;;;12.52;7.15;;;9.20;99.90;;;;;;5069360;28;20232;-76
2023/02/24 01:28:49;;;;;;;17.13;6.80;;;9.10;99.90;;;;;;5055955;28;20651;-80
2023/02/24 01:31:19;;;;;;;25.98;13.90;;;9.10;99.90;;;;;;5060308;28;20221;-80
2023/02/24 01:33:46;;;;;;;21.02;12.35;;;9.10;99.90;;;;;;5055141;28;20247;-76
2023/02/24 01:36:17;;;;;;;17.50;6.70;;;9.00;99.90;;;;;;5046664;28;20316;-76
2023/02/24 01:38:48;;;;;;;11.68;5.60;;;8.90;99.90;;;;;;5054731;28;20225;-79
2023/02/24 01:41:18;;;;;;;14.00;7.00;;;8.90;99.90;;;;;;5055026;28;20236;-79
2023/02/24 01:44:02;;;;;;;10.90;5.32;;;8.90;99.90;;;;;;5067953;28;20224;-76
2023/02/24 01:46:31;;;;;;;18.50;7.00;;;8.80;99.90;;;;;;5069130;28;20225;-75
2023/02/24 01:49:02;;;;;;;12.55;4.90;;;8.70;99.90;;;;;;5055132;28;20659;-76
2023/02/24 01:51:33;;;;;;;18.52;7.70;;;8.70;99.90;;;;;;5070108;28;20542;-76
2023/02/24 01:54:04;;;;;;;10.60;5.53;;;8.60;99.90;;;;;;5062262;28;20230;-76
2023/02/24 01:56:33;;;;;;;13.52;5.97;;;8.60;99.90;;;;;;5058982;28;20308;-80
2023/02/24 01:59:02;;;;;;;14.07;7.53;;;8.50;99.90;;;;;;5068473;28;20229;-77
2023/02/24 02:01:38;;;;;;;24.33;11.85;;;8.50;99.90;;;;;;5054670;28;20250;-77
2023/02/24 02:04:12;;;;;;;10.93;3.83;;;8.40;99.90;;;;;;5064130;28;20237;-77
2023/02/24 02:06:41;;;;;;;10.35;4.70;;;8.30;99.90;;;;;;5061152;28;20224;-77
2023/02/24 02:09:10;;;;;;;19.77;11.52;;;8.30;99.90;;;;;;5055514;28;20235;-77
2023/02/24 02:11:37;;;;;;;12.65;3.60;;;8.20;99.90;;;;;;5062610;28;20221;-80
2023/02/24 02:14:07;;;;;;;13.57;4.75;;;8.10;99.90;;;;;;5073332;28;20220;-77
2023/02/24 02:16:54;;;;;;;14.38;7.30;;;8.10;99.90;;;;;;5043371;28;20231;-77
2023/02/24 02:20:05;;;;;;;9.20;3.00;;;8.10;99.90;;;;;;5053974;28;20646;-77
2023/02/24 02:22:55;;;;;;;15.65;5.63;;;8.00;99.90;;;;;;5060550;28;20707;-81
2023/02/24 02:25:39;;;;;;;7.50;3.00;;;8.00;99.90;;;;;;5057520;28;20245;-77
2023/02/24 02:28:36;;;;;;;22.92;12.40;;;7.90;99.90;;;;;;5057287;28;20220;-76
2023/02/24 02:31:35;;;;;;;18.77;4.43;;;7.90;99.90;;;;;;5059436;28;20224;-80
2023/02/24 02:34:15;;;;;;;13.65;4.75;;;7.90;99.90;;;;;;5054531;28;20232;-80
2023/02/24 02:36:57;;;;;;;10.43;3.35;;;7.80;99.90;;;;;;5053988;28;20228;-80
2023/02/24 02:39:33;;;;;;;11.27;2.85;;;7.70;99.90;;;;;;5052956;28;20308;-80
2023/02/24 02:42:13;;;;;;;10.23;3.80;;;7.70;99.90;;;;;;5054624;28;20232;-77
2023/02/24 02:44:54;;;;;;;15.18;2.55;;;7.70;99.90;;;;;;5054467;28;20535;-79
2023/02/24 02:47:27;;;;;;;9.30;2.60;;;7.70;99.90;;;;;;5054263;28;20651;-78
2023/02/24 02:50:00;;;;;;;13.45;4.03;;;7.60;99.90;;;;;;5054131;28;20224;-77
2023/02/24 02:52:33;;;;;;;10.38;4.22;;;7.60;99.90;;;;;;5053874;28;20217;-77
2023/02/24 02:55:06;;;;;;;7.88;3.17;;;7.60;99.90;;;;;;5066262;28;20498;-77
2023/02/24 02:57:36;;;;;;;7.45;2.90;;;7.60;99.90;;;;;;5056134;28;20235;-80
2023/02/24 03:00:12;;;;;;;13.95;5.45;;;7.60;99.90;;;;;;5064703;28;20302;-79
2023/02/24 03:02:42;;;;;;;8.52;4.15;;;7.50;99.90;;;;;;5056444;28;20238;-78
2023/02/24 03:05:16;;;;;;;6.70;3.50;;;7.50;99.90;;;;;;5066611;28;20386;-80
2023/02/24 03:07:46;;;;;;;17.98;8.05;;;7.50;99.90;;;;;;5062144;28;20284;-76
2023/02/24 03:10:20;;;;;;;5.20;2.45;;;7.40;99.90;;;;;;5054831;28;20224;-76
2023/02/24 03:12:52;;;;;;;6.70;3.22;;;7.40;99.90;;;;;;5063499;28;20752;-76
2023/02/24 03:15:22;;;;;;;5.80;2.50;;;7.40;99.90;;;;;;5069509;28;20240;-76
2023/02/24 03:17:55;;;;;;;11.73;4.25;;;7.40;99.90;;;;;;5070416;28;20737;-79
2023/02/24 03:20:28;;;;;;;7.60;2.97;;;7.40;99.90;;;;;;5073876;28;20220;-79
2023/02/24 03:23:00;;;;;;;8.55;3.78;;;7.40;99.90;;;;;;5073441;28;20303;-76
2023/02/24 03:25:37;;;;;;;4.80;2.63;;;7.40;99.90;;;;;;5073666;28;20684;-79
2023/02/24 03:28:11;;;;;;;8.48;3.75;;;7.40;99.90;;;;;;5071294;28;20220;-76
2023/02/24 03:30:43;;;;;;;4.45;3.35;;;7.30;99.90;;;;;;5071333;28;20224;-76
2023/02/24 03:33:18;;;;;;;13.60;2.70;;;7.40;99.90;;;;;;5070580;28;20226;-79
2023/02/24 03:35:50;;;;;;;8.27;3.20;;;7.40;99.90;;;;;;5071098;28;20254;-76
2023/02/24 03:38:17;;;;;;;8.45;3.20;;;7.40;99.90;;;;;;5071413;28;20303;-75
2023/02/24 03:40:44;;;;;;;5.78;3.13;;;7.40;99.90;;;;;;5071175;28;20384;-76
2023/02/24 03:43:19;;;;;;;4.82;2.83;;;7.40;99.90;;;;;;5071241;28;20227;-80
2023/02/24 03:45:47;;;;;;;7.55;2.72;;;7.40;99.90;;;;;;5073642;28;20265;-79
2023/02/24 03:48:16;;;;;;;13.38;3.13;;;7.40;99.90;;;;;;5072839;28;20223;-76
2023/02/24 03:50:46;;;;;;;4.30;2.45;;;7.40;99.90;;;;;;5073111;28;20224;-76
2023/02/24 03:53:30;;;;;;;14.88;2.42;;;7.40;99.90;;;;;;5072007;28;20262;-76
2023/02/24 03:56:09;;;;;;;9.73;4.03;;;7.40;99.90;;;;;;5072605;28;20223;-76
2023/02/24 03:58:50;;;;;;;6.97;2.47;;;7.40;99.90;;;;;;5073144;28;20243;-76
2023/02/24 04:01:25;;;;;;;7.90;2.20;;;7.40;99.90;;;;;;5072829;28;20258;-80
2023/02/24 04:04:03;;;;;;;9.50;2.65;;;7.40;99.90;;;;;;5073611;28;20297;-80
2023/02/24 04:06:37;;;;;;;10.00;2.45;;;7.40;99.90;;;;;;5073535;28;20225;-80
2023/02/24 04:09:12;;;;;;;7.75;2.88;;;7.40;99.90;;;;;;5037149;28;20232;-76
2023/02/24 04:11:46;;;;;;;4.85;3.10;;;7.40;99.90;;;;;;5062436;28;20323;-79
2023/02/24 04:14:27;;;;;;;7.20;3.35;;;7.40;99.90;;;;;;5072529;28;20576;-79
2023/02/24 04:16:59;;;;;;;7.43;3.05;;;7.40;99.90;;;;;;5072339;28;20232;-79
2023/02/24 04:19:30;;;;;;;9.18;2.97;;;7.30;99.90;;;;;;5073227;28;20247;-76
2023/02/24 04:21:57;;;;;;;7.07;2.80;;;7.40;99.90;;;;;;5072052;28;20353;-77
2023/02/24 04:24:29;;;;;;;9.23;2.70;;;7.40;99.90;;;;;;5073107;28;20244;-80
2023/02/24 04:26:58;;;;;;;5.07;2.80;;;7.40;99.90;;;;;;5072343;28;20224;-76
2023/02/24 04:29:34;;;;;;;7.88;2.95;;;7.40;99.90;;;;;;5072827;28;20673;-76
2023/02/24 04:32:04;;;;;;;8.32;3.25;;;7.40;99.90;;;;;;5072303;28;20223;-76
2023/02/24 04:34:32;;;;;;;9.05;3.15;;;7.40;99.90;;;;;;5072803;28;20220;-76
2023/02/24 04:37:01;;;;;;;6.13;2.80;;;7.40;99.90;;;;;;5072280;28;20673;-80
2023/02/24 04:39:30;;;;;;;8.98;3.60;;;7.40;99.90;;;;;;5072646;28;20226;-76
2023/02/24 04:41:57;;;;;;;7.25;3.75;;;7.40;99.90;;;;;;5072349;28;20224;-79
2023/02/24 04:44:26;;;;;;;10.85;4.20;;;7.40;99.90;;;;;;5072554;28;20220;-80
2023/02/24 04:46:54;;;;;;;9.35;3.03;;;7.40;99.90;;;;;;5072010;28;20350;-76
2023/02/24 04:49:22;;;;;;;14.77;6.50;;;7.40;99.90;;;;;;5072314;28;20622;-76
2023/02/24 04:51:50;;;;;;;9.90;4.65;;;7.40;99.90;;;;;;5072569;28;20620;-76
2023/02/24 04:54:28;;;;;;;6.13;2.63;;;7.40;99.90;;;;;;5074053;28;20239;-77
2023/02/24 04:56:57;;;;;;;7.53;3.78;;;7.40;99.90;;;;;;5075707;28;20220;-80
2023/02/24 04:59:25;;;;;;;10.57;3.53;;;7.40;99.90;;;;;;5075566;28;20228;-74
2023/02/24 05:01:53;;;;;;;13.18;3.03;;;7.40;99.90;;;;;;5076186;28;20228;-79
2023/02/24 05:04:21;;;;;;;7.43;3.45;;;7.40;99.90;;;;;;5075178;28;21339;-76
2023/02/24 05:06:48;;;;;;;7.80;3.58;;;7.40;99.90;;;;;;5076537;28;20239;-75
2023/02/24 05:09:17;;;;;;;5.80;2.90;;;7.40;99.90;;;;;;5063599;28;20537;-80
2023/02/24 05:11:47;;;;;;;6.90;3.08;;;7.40;99.90;;;;;;5060666;28;20232;-76
2023/02/24 05:14:19;;;;;;;3.67;2.60;;;7.40;99.90;;;;;;5075485;28;20654;-80
2023/02/24 05:16:50;;;;;;;4.18;2.30;;;7.40;99.90;;;;;;5076836;28;20224;-80
2023/02/24 05:22:05;;;;;;;8.48;3.15;;;7.40;99.90;;;;;;5080964;28;20312;-76
2023/02/24 05:24:33;;;;;;;9.23;2.88;;;7.40;99.90;;;;;;5091166;28;20283;-79
2023/02/24 05:27:02;;;;;;;7.40;2.70;;;7.40;99.90;;;;;;5091575;28;20645;-78
2023/02/24 05:29:34;;;;;;;5.88;3.38;;;7.40;99.90;;;;;;5089661;28;20242;-79
2023/02/24 05:32:07;;;;;;;8.60;2.78;;;7.40;99.90;;;;;;5086420;28;20282;-76
2023/02/24 05:34:34;;;;;;;7.97;2.92;;;7.40;99.90;;;;;;5047855;28;20232;-75
2023/02/24 05:37:09;;;;;;;7.30;2.70;;;7.40;99.90;;;;;;5075264;28;20274;-75
2023/02/24 05:39:37;;;;;;;6.60;2.40;;;7.30;99.90;;;;;;5074359;28;20234;-80
2023/02/24 05:42:05;;;;;;;7.18;2.88;;;7.30;99.90;;;;;;5065704;28;20256;-76
2023/02/24 05:44:35;;;;;;;8.80;4.68;;;7.40;99.90;;;;;;5074975;28;20222;-79
2023/02/24 05:47:04;;;;;;;4.82;2.30;;;7.30;99.90;;;;;;5074878;28;20220;-80
2023/02/24 05:49:37;;;;;;;12.27;3.60;;;7.30;99.90;;;;;;5072924;28;20282;-81
2023/02/24 05:52:07;;;;;;;6.28;2.35;;;7.30;99.90;;;;;;5075264;28;20223;-81
2023/02/24 05:54:37;;;;;;;9.38;2.85;;;7.30;99.90;;;;;;5075237;28;20653;-81
2023/02/24 05:57:07;;;;;;;5.18;2.75;;;7.30;99.90;;;;;;5058159;28;20229;-81
2023/02/24 05:59:36;;;;;;;4.53;2.60;;;7.40;99.90;;;;;;5064083;28;20224;-81
2023/02/24 06:02:07;;;;;;;9.35;3.33;;;7.30;99.90;;;;;;5074756;28;20235;-80
2023/02/24 06:07:18;;;;;;;10.85;8.23;;;7.40;99.90;;;;;;5072471;28;20216;-76
2023/02/24 06:09:49;;;;;;;9.65;3.15;;;7.40;99.90;;;;;;5074113;28;20228;-76
2023/02/24 06:12:17;;;;;;;9.38;5.00;;;7.40;99.90;;;;;;5074676;28;20227;-76
2023/02/24 06:14:47;;;;;;;3.90;1.70;;;7.40;99.90;;;;;;5073968;28;20273;-79
2023/02/24 06:17:15;;;;;;;5.60;2.00;;;7.40;99.90;;;;;;5074753;28;20233;-77
2023/02/24 06:19:48;;;;;;;8.02;2.97;;;7.40;99.90;;;;;;5074913;28;20606;-75
2023/02/24 06:22:18;;;;;;;6.65;2.97;;;7.30;99.90;;;;;;5075193;28;20251;-76
2023/02/24 06:24:48;;;;;;;9.27;2.78;;;7.30;99.90;;;;;;5074044;28;20312;-76
2023/02/24 06:27:18;;;;;;;6.20;3.05;;;7.30;99.90;;;;;;5074859;28;20220;-76
2023/02/24 06:29:48;;;;;;;4.93;2.20;;;7.30;99.90;;;;;;5073112;28;20246;-76
2023/02/24 06:32:16;;;;;;;11.38;2.70;;;7.30;99.90;;;;;;5074208;28;20631;-76
2023/02/24 06:34:43;;;;;;;8.23;5.20;;;7.30;99.90;;;;;;5074066;28;20380;-76
2023/02/24 06:37:17;;;;;;;8.02;2.28;;;7.30;99.90;;;;;;5074378;28;20282;-76
2023/02/24 06:39:44;;;;;;;19.25;8.18;;;7.30;99.90;;;;;;5052333;28;20268;-79
2023/02/24 06:42:12;;;;;;;12.20;2.95;;;7.30;99.90;;;;;;5068395;28;20614;-79
2023/02/24 06:44:40;;;;;;;11.13;5.05;;;7.30;99.90;;;;;;5073276;28;20223;-79
2023/02/24 06:47:12;;;;;;;5.68;3.10;;;7.30;99.90;;;;;;5074082;28;20220;-76
2023/02/24 06:49:39;;;;;;;9.82;4.63;;;7.40;99.90;;;;;;5073461;28;20224;-76
2023/02/24 06:52:07;;;;;;;6.55;4.57;;;7.30;99.90;;;;;;5074075;28;20224;-76
2023/02/24 06:54:34;;;;;;;14.23;8.25;;;7.30;99.90;;;;;;5073551;28;20277;-76
2023/02/24 06:57:02;;;;;;;12.00;4.75;;;7.30;99.90;;;;;;5074431;28;20554;-79
2023/02/24 06:59:29;;;;;;;10.05;4.03;;;7.30;99.90;;;;;;5073934;28;20231;-76
2023/02/24 07:01:58;;;;;;;7.13;3.90;;;7.30;99.90;;;;;;5073373;28;20219;-76
2023/02/24 07:04:26;;;;;;;10.13;5.03;;;7.30;99.90;;;;;;5073659;28;20224;-76
2023/02/24 07:06:56;;;;;;;7.43;3.00;;;7.30;99.90;;;;;;5072999;28;20757;-75
2023/02/24 07:09:25;;;;;;;13.68;4.80;;;7.30;99.90;;;;;;5073940;28;20228;-78
2023/02/24 07:11:55;;;;;;;11.50;5.70;;;7.30;99.90;;;;;;5072775;28;20234;-79
2023/02/24 07:14:24;;;;;;;12.43;3.55;;;7.30;99.90;;;;;;5073418;28;20695;-79
2023/02/24 07:16:55;;;;;;;9.80;3.40;;;7.30;99.90;;;;;;5064221;28;20221;-75
2023/02/24 07:19:29;;;;;;;5.32;3.10;;;7.30;99.90;;;;;;5073279;28;20605;-75
2023/02/24 07:22:02;;;;;;;5.50;3.40;;;7.30;99.90;;;;;;5071868;28;20610;-75
2023/02/24 07:24:34;;;;;;;4.75;3.10;;;7.30;99.90;;;;;;5073839;28;20330;-76
2023/02/24 07:27:05;;;;;;;6.65;2.45;;;7.20;99.90;;;;;;5073122;28;20247;-80
2023/02/24 07:29:37;;;;;;;6.57;4.05;;;7.20;99.90;;;;;;5073307;28;20228;-79
2023/02/24 07:32:12;;;;;;;9.63;2.97;;;7.30;99.90;;;;;;5071243;28;20216;-76
2023/02/24 07:34:41;;;;;;;7.07;2.50;;;7.30;99.90;;;;;;5064444;28;21001;-80
2023/02/24 07:37:09;;;;;;;4.30;2.47;;;7.30;99.90;;;;;;5063312;28;20231;-76
2023/02/24 07:39:37;;;;;;;4.65;2.22;;;7.30;99.90;;;;;;5073189;28;20233;-75
2023/02/24 07:42:06;;;;;;;9.77;2.63;;;7.40;99.90;;;;;;5072476;28;20231;-76
2023/02/24 07:44:33;;;;;;;10.02;3.50;;;7.40;99.90;;;;;;5072563;28;20266;-76
2023/02/24 07:47:06;;;;;;;8.13;2.92;;;7.40;99.90;;;;;;5072343;28;20232;-76
2023/02/24 07:49:33;;;;;;;6.60;2.30;;;7.40;99.90;;;;;;5072558;28;20238;-79
2023/02/24 07:52:02;;;;;;;5.07;1.92;;;7.40;99.90;;;;;;5072621;28;20277;-79
2023/02/24 07:54:30;;;;;;;9.65;2.90;;;7.40;99.90;;;;;;5073574;28;20251;-79
2023/02/24 07:56:58;;;;;;;5.00;1.85;;;7.40;99.90;;;;;;5073292;28;20224;-80
2023/02/24 07:59:26;;;;;;;5.07;2.88;;;7.40;99.90;;;;;;5071937;28;20285;-79
2023/02/24 08:01:54;;;;;;;6.38;3.08;;;7.50;99.90;;;;;;5061907;28;20277;-79
2023/02/24 08:04:24;;;;;;;3.30;2.40;;;7.40;99.90;;;;;;5056751;28;20243;-79
2023/02/24 08:06:55;;;;;;;4.60;2.28;;;7.50;99.90;;;;;;5072717;28;20232;-79
2023/02/24 08:12:20;;;;;;;6.55;2.92;;;7.50;99.90;;;;;;5073316;28;20231;-76
2023/02/24 08:14:50;;;;;;;7.38;2.80;;;7.50;99.90;;;;;;5073722;28;20230;-75
2023/02/24 08:17:20;;;;;;;5.65;3.13;;;7.50;99.90;;;;;;5075151;28;20255;-79
2023/02/24 08:19:48;;;;;;;7.18;2.97;;;7.60;99.90;;;;;;5073238;28;20239;-75
2023/02/24 08:22:19;;;;;;;4.28;3.40;;;7.60;99.90;;;;;;5063665;28;20235;-76
2023/02/24 08:24:49;;;;;;;5.10;4.05;;;7.60;99.90;;;;;;5071625;28;20281;-75
2023/02/24 08:27:18;;;;;;;9.90;4.40;;;7.60;99.90;;;;;;5072271;28;20333;-76
2023/02/24 08:29:58;;;;;;;5.43;3.33;;;7.60;99.90;;;;;;5077981;28;20307;-79
2023/02/24 08:32:32;;;;;;;6.28;2.60;;;7.60;99.90;;;;;;5077596;28;20621;-76
2023/02/24 08:35:01;;;;;;;8.70;2.83;;;7.70;99.90;;;;;;5076516;28;20226;-76
2023/02/24 08:37:33;;;;;;;4.40;2.72;;;7.60;99.90;;;;;;5075808;28;20258;-76
2023/02/24 08:40:04;;;;;;;5.57;2.72;;;7.60;99.90;;;;;;5076070;28;20216;-76
2023/02/24 08:42:33;;;;;;;3.55;2.40;;;7.70;99.90;;;;;;5075512;28;20223;-75
2023/02/24 08:45:00;;;;;;;13.60;4.97;;;7.70;99.90;;;;;;5075338;28;20243;-75
2023/02/24 08:47:29;;;;;;;6.18;2.83;;;7.80;99.90;;;;;;5075074;28;20228;-79
2023/02/24 08:50:05;;;;;;;9.13;2.85;;;7.80;99.90;;;;;;5075773;28;20220;-79
2023/02/24 08:52:34;;;;;;;4.80;2.33;;;7.90;99.90;;;;;;5074931;28;20594;-76
2023/02/24 08:55:04;;;;;;;3.13;2.47;;;7.90;99.90;;;;;;5075770;28;20224;-76
2023/02/24 08:57:34;;;;;;;11.15;3.63;;;8.00;99.90;;;;;;5074887;28;20292;-76
2023/02/24 09:00:05;;;;;;;8.57;4.28;;;8.00;99.90;;;;;;5075380;28;20264;-78
2023/02/24 09:02:39;;;;;;;6.40;3.35;;;8.10;99.90;;;;;;5074997;28;20220;-76
2023/02/24 09:05:10;;;;;;;5.93;3.35;;;8.10;99.90;;;;;;5075401;28;20232;-79
2023/02/24 09:07:42;;;;;;;7.88;3.30;;;8.10;99.90;;;;;;5074330;28;20559;-79
2023/02/24 09:10:16;;;;;;;7.68;3.35;;;8.10;99.90;;;;;;5065363;28;20541;-79
2023/02/24 09:12:44;;;;;;;5.90;3.80;;;8.10;99.90;;;;;;5075483;28;20215;-76
2023/02/24 09:15:14;;;;;;;7.60;4.68;;;8.20;99.90;;;;;;5075737;28;20220;-78
2023/02/24 09:18:06;;;;;;;7.45;3.17;;;8.20;99.90;;;;;;5074583;28;20553;-79
2023/02/24 09:23:28;;;;;;;4.22;2.95;;;8.20;99.90;;;;;;5075450;28;20226;-75
2023/02/24 09:26:09;;;;;;;6.72;3.22;;;8.30;99.90;;;;;;5078401;28;20216;-76
2023/02/24 09:28:47;;;;;;;8.73;5.05;;;8.30;99.90;;;;;;5075613;28;20228;-76
2023/02/24 09:31:16;;;;;;;6.70;4.57;;;8.30;99.90;;;;;;5074018;28;20246;-76
2023/02/24 09:33:49;;;;;;;8.27;3.05;;;8.30;99.90;;;;;;5075309;28;20228;-79
2023/02/24 09:36:26;;;;;;;8.68;5.80;;;8.30;99.90;;;;;;5075076;28;20251;-79
2023/02/24 09:39:13;;;;;;;9.18;5.15;;;8.20;99.90;;;;;;5075096;28;20239;-79
2023/02/24 09:42:27;;;;;;;6.75;2.63;;;8.20;99.90;;;;;;5074598;28;20273;-79
2023/02/24 09:44:54;;;;;;;7.50;4.35;;;8.30;99.90;;;;;;5074350;28;20223;-79
2023/02/24 09:47:38;;;;;;;7.45;3.20;;;8.30;99.90;;;;;;5074264;28;20236;-79
2023/02/24 09:50:17;;;;;;;7.03;2.65;;;8.30;99.90;;;;;;5073918;28;20246;-76
2023/02/24 09:52:45;;;;;;;5.30;2.78;;;8.30;99.90;;;;;;5075121;28;20228;-79
2023/02/24 09:55:24;;;;;;;4.90;2.85;;;8.40;99.90;;;;;;5073004;28;20561;-75
2023/02/24 10:00:58;;;;;;;10.70;3.03;;;8.50;99.90;;;;;;5074655;28;20301;-75
2023/02/24 10:03:41;;;;;;;6.57;2.50;;;8.50;99.90;;;;;;5074801;28;20234;-75
2023/02/24 10:06:20;;;;;;;5.03;2.47;;;8.50;99.90;;;;;;5074499;28;20305;-79
2023/02/24 10:08:54;;;;;;;5.13;4.18;;;8.50;99.90;;;;;;5069588;28;20278;-79
2023/02/24 10:11:31;;;;;;;9.15;3.80;;;8.50;99.90;;;;;;5064782;28;20219;-75
2023/02/24 10:14:04;;;;;;;5.15;2.38;;;8.50;99.90;;;;;;5067117;28;20216;-75
2023/02/24 10:16:41;;;;;;;8.98;3.35;;;8.50;99.90;;;;;;5062390;28;20591;-75
2023/02/24 10:19:22;;;;;;;6.38;2.30;;;8.50;99.90;;;;;;5054129;28;20217;-79
2023/02/24 10:22:01;;;;;;;6.38;3.22;;;8.50;99.90;;;;;;5054867;28;20224;-79
2023/02/24 10:24:35;;;;;;;6.47;2.25;;;8.50;99.90;;;;;;5055608;28;20247;-79
2023/02/24 10:27:12;;;;;;;6.65;2.72;;;8.50;99.90;;;;;;5054846;28;20224;-80
2023/02/24 10:29:54;;;;;;;7.63;3.33;;;8.50;99.90;;;;;;5066421;28;20257;-78
2023/02/24 10:32:32;;;;;;;4.30;3.30;;;8.60;99.90;;;;;;5069526;28;20217;-76
2023/02/24 10:35:00;;;;;;;9.57;2.58;;;8.60;99.90;;;;;;5064679;28;20232;-79
2023/02/24 10:37:29;;;;;;;4.70;2.55;;;8.50;99.90;;;;;;5056015;28;20247;-76
2023/02/24 10:40:08;;;;;;;5.60;2.97;;;8.60;99.90;;;;;;5055450;28;20681;-79
2023/02/24 10:42:43;;;;;;;4.47;2.70;;;8.60;99.90;;;;;;5055242;28;20229;-76
2023/02/24 10:45:24;;;;;;;5.55;2.75;;;8.60;99.90;;;;;;5063423;28;20226;-79
2023/02/24 10:47:56;;;;;;;3.25;2.10;;;8.60;99.90;;;;;;5072725;28;20224;-79
2023/02/24 10:50:25;;;;;;;5.63;2.83;;;8.70;99.90;;;;;;5055270;28;20628;-79
2023/02/24 10:53:24;;;;;;;7.45;3.45;;;8.70;99.90;;;;;;5055692;28;20220;-75
2023/02/24 10:56:13;;;;;;;8.60;3.03;;;8.70;99.90;;;;;;5056723;28;20224;-76
2023/02/24 10:58:48;;;;;;;4.25;2.20;;;8.70;99.90;;;;;;5056078;28;20244;-79
2023/02/24 11:01:20;;;;;;;3.95;2.60;;;8.70;99.90;;;;;;5054220;28;20673;-79
2023/02/24 11:04:11;;;;;;;3.35;2.60;;;8.60;99.90;;;;;;5051988;28;20617;-76
2023/02/24 11:06:54;;;;;;;4.57;2.30;;;8.50;99.90;;;;;;5051731;28;20319;-76
2023/02/24 11:09:34;;;;;;;8.40;3.13;;;8.50;99.90;;;;;;5063385;28;20702;-76
2023/02/24 11:18:02;;;;;;;5.30;3.72;;;8.40;99.90;;;;;;4997599;28;20230;-76
2023/02/24 11:20:34;;;;;;;8.27;5.32;;;8.30;99.90;;;;;;4993174;28;20219;-80
2023/02/24 11:23:05;;;;;;;6.57;4.07;;;8.30;99.90;;;;;;5022878;28;20217;-80
2023/02/24 11:25:38;;;;;;;9.30;4.80;;;8.20;99.90;;;;;;5057336;28;20233;-80
2023/02/24 11:28:13;;;;;;;10.75;3.72;;;8.20;99.90;;;;;;5063195;28;20257;-79
2023/02/24 11:30:45;;;;;;;5.85;4.10;;;8.10;99.90;;;;;;5063002;28;20236;-80
2023/02/24 11:33:24;;;;;;;4.85;2.85;;;8.00;99.90;;;;;;5063722;28;20235;-80
2023/02/24 11:36:05;;;;;;;2.60;2.40;;;8.00;99.90;;;;;;5062324;28;20224;-80
2023/02/24 11:38:43;;;;;;;12.30;3.80;;;7.90;99.90;;;;;;5063048;28;20286;-80
2023/02/24 11:41:21;;;;;;;3.20;2.90;;;7.80;99.90;;;;;;5061715;28;20235;-80
2023/02/24 11:43:58;;;;;;;8.95;2.92;;;7.70;99.90;;;;;;5057937;28;20686;-80
2023/02/24 11:46:36;;;;;;;2.60;2.13;;;7.60;99.90;;;;;;5057022;28;20307;-80
2023/02/24 11:49:10;;;;;;;6.82;4.03;;;7.60;99.90;;;;;;5061155;28;20755;-77
2023/02/24 11:51:38;;;;;;;8.45;5.30;;;7.50;99.90;;;;;;5060197;28;20241;-80
2023/02/24 11:54:16;;;;;;;6.90;4.68;;;7.50;99.90;;;;;;5066324;28;20229;-77
2023/02/24 11:56:47;;;;;;;10.88;4.38;;;7.50;99.90;;;;;;5071103;28;20240;-80
2023/02/24 11:59:19;;;;;;;4.30;2.80;;;7.40;99.90;;;;;;5068156;28;20238;-77
2023/02/24 12:01:55;;;;;;;6.00;3.83;;;7.40;99.90;;;;;;5069163;28;20310;-79
2023/02/24 12:04:29;;;;;;;3.65;2.40;;;7.30;99.90;;;;;;5070554;28;20375;-80
2023/02/24 12:07:04;;;;;;;2.65;2.35;;;7.30;99.90;;;;;;5071628;28;20255;-81
2023/02/24 12:09:36;;;;;;;5.47;3.03;;;7.30;99.90;;;;;;5064507;28;20369;-80
2023/02/24 12:12:08;;;;;;;8.25;5.28;;;7.30;99.90;;;;;;5064369;28;20290;-76
2023/02/24 12:14:39;;;;;;;4.63;3.65;;;7.30;99.90;;;;;;5084548;28;21275;-76
2023/02/24 12:17:17;;;;;;;4.55;4.15;;;7.30;99.90;;;;;;5077512;28;20248;-80
2023/02/24 12:19:57;;;;;;;7.85;3.45;;;7.10;99.90;;;;;;5072554;28;20231;-77
2023/02/24 12:22:28;;;;;;;4.00;2.42;;;7.10;99.90;;;;;;5072225;28;20231;-77
2023/02/24 12:24:56;;;;;;;5.70;2.78;;;7.10;99.90;;;;;;5070510;28;20633;-76
2023/02/24 12:27:42;;;;;;;3.90;2.47;;;7.10;99.90;;;;;;5052049;28;20224;-76
2023/02/24 12:30:34;;;;;;;4.43;2.28;;;7.10;99.90;;;;;;5054808;28;20252;-76
2023/02/24 12:33:23;;;;;;;3.97;2.50;;;7.10;99.90;;;;;;5045556;28;20224;-76
2023/02/24 12:35:59;;;;;;;3.92;1.85;;;7.10;99.90;;;;;;5075183;28;20219;-80
2023/02/24 12:38:45;;;;;;;6.22;1.85;;;7.10;99.90;;;;;;5052425;28;20576;-76
2023/02/24 12:41:27;;;;;;;2.47;2.20;;;7.00;99.90;;;;;;5053816;28;20236;-76
2023/02/24 12:44:10;;;;;;;3.38;2.10;;;7.00;99.90;;;;;;5077864;28;20232;-78
2023/02/24 12:46:38;;;;;;;5.40;2.35;;;7.00;99.90;;;;;;5080099;28;20220;-79
2023/02/24 12:49:34;;;;;;;9.02;2.90;;;7.00;99.90;;;;;;5081436;28;20231;-79
2023/02/24 12:52:10;;;;;;;6.03;2.72;;;6.90;99.90;;;;;;5075896;28;20229;-81
2023/02/24 12:54:44;;;;;;;3.47;1.75;;;6.90;99.90;;;;;;5070480;28;20229;-80
2023/02/24 12:57:19;;;;;;;4.40;2.25;;;6.90;99.90;;;;;;5076675;28;20688;-75
2023/02/24 12:59:50;;;;;;;2.70;1.65;;;6.80;99.90;;;;;;5073503;28;20228;-75
2023/02/24 13:02:28;;;;;;;2.25;1.75;;;6.70;99.90;;;;;;5059358;28;20219;-79
2023/02/24 13:05:03;;;;;;;6.65;3.90;;;6.60;99.90;;;;;;5053877;28;20220;-78
2023/02/24 13:07:53;;;;;;;4.75;3.42;;;6.50;99.90;;;;;;5039195;28;20282;-77
2023/02/24 13:10:32;;;;;;;3.90;2.50;;;6.50;99.90;;;;;;5076721;28;20219;-77
2023/02/24 13:13:09;;;;;;;8.90;2.80;;;6.50;99.90;;;;;;5087469;28;20258;-78
2023/02/24 13:15:36;;;;;;;2.90;2.60;;;6.40;99.90;;;;;;5087061;28;20253;-75
2023/02/24 13:18:03;;;;;;;8.98;4.15;;;6.50;99.90;;;;;;5091774;28;20291;-75
2023/02/24 13:20:33;;;;;;;4.95;3.30;;;6.40;99.90;;;;;;5091094;28;20254;-76
2023/02/24 13:23:03;;;;;;;2.45;1.63;;;6.50;99.90;;;;;;5086026;28;20224;-77
2023/02/24 13:25:33;;;;;;;5.93;3.65;;;6.40;99.90;;;;;;5077862;28;20289;-76
2023/02/24 13:28:02;;;;;;;3.05;2.85;;;6.50;99.90;;;;;;5051137;28;20240;-80
2023/02/24 13:30:37;;;;;;;2.28;2.08;;;6.50;99.90;;;;;;5079662;28;20234;-77
2023/02/24 13:33:19;;;;;;;5.60;2.63;;;6.50;99.90;;;;;;5078314;28;20227;-80
2023/02/24 13:35:48;;;;;;;4.38;2.60;;;6.60;99.90;;;;;;5077502;28;20255;-80
2023/02/24 13:38:37;;;;;;;3.78;2.53;;;6.60;99.90;;;;;;5064197;28;20216;-81
2023/02/24 13:41:11;;;;;;;4.00;2.40;;;6.60;99.90;;;;;;5058640;28;20551;-77
2023/02/24 13:43:38;;;;;;;3.85;3.30;;;6.50;99.90;;;;;;5074779;28;20780;-76
2023/02/24 13:46:18;;;;;;;5.07;3.95;;;6.60;99.90;;;;;;5062200;28;20220;-77